createdAt,value
2023-09-27T00:01:45.781Z,20.42
2023-09-27T00:04:16.003Z,27.23
2023-09-27T00:06:46.188Z,20.67
2023-09-27T00:09:17.217Z,23.55
2023-09-27T00:11:46.813Z,26.05
2023-09-27T00:14:15.621Z,23.40
2023-09-27T00:16:43.787Z,22.92
2023-09-27T00:19:12.211Z,27.33
2023-09-27T00:21:40.322Z,27.58
2023-09-27T00:24:09.190Z,26.60
2023-09-27T00:26:37.216Z,26.75
2023-09-27T00:29:05.630Z,22.13
2023-09-27T00:31:34.152Z,28.13
2023-09-27T00:34:02.396Z,26.77
2023-09-27T00:36:30.733Z,27.58
2023-09-27T00:38:59.233Z,26.02
2023-09-27T00:41:27.665Z,23.98
2023-09-27T00:43:56.073Z,26.15
2023-09-27T00:46:24.943Z,26.35
2023-09-27T00:48:53.855Z,25.77
2023-09-27T00:51:21.719Z,25.00
2023-09-27T00:53:51.963Z,22.48
2023-09-27T00:56:21.577Z,23.85
2023-09-27T00:58:50.728Z,23.42
2023-09-27T01:01:22.151Z,24.73
2023-09-27T01:03:54.281Z,23.17
2023-09-27T01:06:25.081Z,26.77
2023-09-27T01:08:55.393Z,26.13
2023-09-27T01:11:26.309Z,24.30
2023-09-27T01:13:56.652Z,29.63
2023-09-27T01:16:27.368Z,22.38
2023-09-27T01:19:05.912Z,21.80
2023-09-27T01:24:07.898Z,30.30
2023-09-27T01:26:41.048Z,22.15
2023-09-27T01:29:11.336Z,29.13
2023-09-27T01:31:41.606Z,27.05
2023-09-27T01:34:11.944Z,23.48
2023-09-27T01:36:42.320Z,24.05
2023-09-27T01:39:12.865Z,24.70
2023-09-27T01:41:43.076Z,25.40
2023-09-27T01:44:11.643Z,26.17
2023-09-27T01:46:40.079Z,23.73
2023-09-27T01:49:08.918Z,25.13
2023-09-27T01:51:37.393Z,30.35
2023-09-27T01:54:05.325Z,23.17
2023-09-27T01:56:33.581Z,24.98
2023-09-27T01:59:02.389Z,23.10
2023-09-27T02:01:30.434Z,23.00
2023-09-27T02:03:58.851Z,24.40
2023-09-27T02:06:27.166Z,21.77
2023-09-27T02:08:55.977Z,25.10
2023-09-27T02:11:27.028Z,26.25
2023-09-27T02:13:56.056Z,23.48
2023-09-27T02:16:23.938Z,23.75
2023-09-27T02:18:52.484Z,25.23
2023-09-27T02:21:20.745Z,23.92
2023-09-27T02:23:49.027Z,23.42
2023-09-27T02:26:17.693Z,24.13
2023-09-27T02:28:45.830Z,26.00
2023-09-27T02:31:14.405Z,25.25
2023-09-27T02:33:41.958Z,25.20
2023-09-27T02:36:10.403Z,25.33
2023-09-27T02:38:38.794Z,23.77
2023-09-27T02:41:08.268Z,23.15
2023-09-27T02:43:36.070Z,24.73
2023-09-27T02:46:05.049Z,26.23
2023-09-27T02:48:32.402Z,25.08
2023-09-27T02:51:01.291Z,26.80
2023-09-27T02:53:29.210Z,27.85
2023-09-27T02:55:58.976Z,24.80
2023-09-27T02:58:29.231Z,28.77
2023-09-27T03:00:59.738Z,28.45
2023-09-27T03:03:32.397Z,31.65
2023-09-27T03:06:02.852Z,29.77
2023-09-27T03:08:33.128Z,30.88
2023-09-27T03:11:07.933Z,26.02
2023-09-27T03:13:38.238Z,20.40
2023-09-27T03:16:08.462Z,26.55
2023-09-27T03:18:39.001Z,21.15
2023-09-27T03:21:09.279Z,19.17
2023-09-27T03:23:39.583Z,24.08
2023-09-27T03:26:09.879Z,27.13
2023-09-27T03:28:40.181Z,29.83
2023-09-27T03:31:11.286Z,29.65
2023-09-27T03:33:41.457Z,29.70
2023-09-27T03:36:12.789Z,27.02
2023-09-27T03:38:43.473Z,29.38
2023-09-27T03:41:13.805Z,28.98
2023-09-27T03:43:44.149Z,31.65
2023-09-27T03:46:14.465Z,33.47
2023-09-27T03:48:44.657Z,28.65
2023-09-27T03:51:14.970Z,32.28
2023-09-27T03:53:45.155Z,31.02
2023-09-27T03:56:15.563Z,34.90
2023-09-27T03:58:45.858Z,39.20
2023-09-27T04:01:17.648Z,32.60
2023-09-27T04:03:48.046Z,32.88
2023-09-27T04:06:18.468Z,32.40
2023-09-27T04:08:48.686Z,32.60
2023-09-27T04:11:18.959Z,33.33
2023-09-27T04:13:49.834Z,32.30
2023-09-27T04:16:20.144Z,31.35
2023-09-27T04:18:50.489Z,32.42
2023-09-27T04:21:21.167Z,34.20
2023-09-27T04:23:58.958Z,33.90
2023-09-27T04:26:29.725Z,31.98
2023-09-27T04:29:01.695Z,30.85
2023-09-27T04:31:31.468Z,31.52
2023-09-27T04:34:00.785Z,28.38
2023-09-27T04:36:28.281Z,29.10
2023-09-27T04:38:56.676Z,30.90
2023-09-27T04:41:25.506Z,26.60
2023-09-27T04:43:53.989Z,30.63
2023-09-27T04:46:22.107Z,20.08
2023-09-27T04:48:52.181Z,24.30
2023-09-27T04:51:22.592Z,20.42
2023-09-27T04:53:53.080Z,20.45
2023-09-27T04:56:23.423Z,24.60
2023-09-27T04:58:53.816Z,23.35
2023-09-27T05:01:24.315Z,20.42
2023-09-27T05:03:54.818Z,25.02
2023-09-27T05:06:25.601Z,21.60
2023-09-27T05:08:56.122Z,23.40
2023-09-27T05:11:26.416Z,21.20
2023-09-27T05:13:56.626Z,21.90
2023-09-27T05:16:26.867Z,21.58
2023-09-27T05:18:57.199Z,22.60
2023-09-27T05:21:27.825Z,21.63
2023-09-27T05:23:58.059Z,17.77
2023-09-27T05:26:28.650Z,16.70
2023-09-27T05:28:59.119Z,19.20
2023-09-27T05:31:29.699Z,19.30
2023-09-27T05:33:59.934Z,19.45
2023-09-27T05:36:30.136Z,19.20
2023-09-27T05:39:03.500Z,13.48
2023-09-27T05:41:33.796Z,17.45
2023-09-27T05:44:02.244Z,14.23
2023-09-27T05:46:30.887Z,13.25
2023-09-27T05:48:59.025Z,12.13
2023-09-27T05:51:30.360Z,13.93
2023-09-27T05:53:59.783Z,11.77
2023-09-27T05:56:29.268Z,13.35
2023-09-27T05:59:00.848Z,15.32
2023-09-27T06:01:33.294Z,15.10
2023-09-27T06:04:05.349Z,16.60
2023-09-27T06:06:38.008Z,12.35
2023-09-27T06:09:10.796Z,17.80
2023-09-27T06:11:41.136Z,16.83
2023-09-27T06:14:11.926Z,18.83
2023-09-27T06:16:46.415Z,21.38
2023-09-27T06:19:16.809Z,27.25
2023-09-27T06:21:47.072Z,24.70
2023-09-27T06:24:17.631Z,24.42
2023-09-27T06:26:48.222Z,19.15
2023-09-27T06:29:21.232Z,24.40
2023-09-27T06:31:52.626Z,20.10
2023-09-27T06:34:22.845Z,19.15
2023-09-27T06:36:57.824Z,21.33
2023-09-27T06:39:28.284Z,16.35
2023-09-27T06:41:58.652Z,18.90
2023-09-27T06:44:28.950Z,18.95
2023-09-27T06:46:59.172Z,18.15
2023-09-27T06:49:29.418Z,30.35
2023-09-27T06:51:59.808Z,24.98
2023-09-27T06:54:30.495Z,22.02
2023-09-27T06:57:00.748Z,24.92
2023-09-27T06:59:32.759Z,26.88
2023-09-27T07:02:03.426Z,29.77
2023-09-27T07:04:33.820Z,28.55
2023-09-27T07:07:04.038Z,27.92
2023-09-27T07:09:34.560Z,31.48
2023-09-27T07:12:05.403Z,28.30
2023-09-27T07:14:33.307Z,30.83
2023-09-27T07:17:02.243Z,29.00
2023-09-27T07:19:32.841Z,27.92
2023-09-27T07:22:02.648Z,31.92
2023-09-27T07:24:32.930Z,31.20
2023-09-27T07:27:03.815Z,33.42
2023-09-27T07:29:35.299Z,25.67
2023-09-27T07:32:06.360Z,26.95
2023-09-27T07:34:36.769Z,26.10
2023-09-27T07:37:07.318Z,25.35
2023-09-27T07:39:38.577Z,31.23
2023-09-27T07:42:09.808Z,24.17
2023-09-27T07:44:40.597Z,25.98
2023-09-27T07:47:11.018Z,29.80
2023-09-27T07:49:41.289Z,27.10
2023-09-27T07:52:12.348Z,23.85
2023-09-27T07:54:42.607Z,27.20
2023-09-27T07:57:13.635Z,24.92
2023-09-27T07:59:43.956Z,19.77
2023-09-27T08:02:14.901Z,21.90
2023-09-27T08:04:45.182Z,22.50
2023-09-27T08:07:15.453Z,19.58
2023-09-27T08:09:45.684Z,22.08
2023-09-27T08:12:16.133Z,21.40
2023-09-27T08:14:46.461Z,23.23
2023-09-27T08:17:14.834Z,19.27
2023-09-27T08:19:44.949Z,21.20
2023-09-27T08:22:13.002Z,18.23
2023-09-27T08:24:41.414Z,21.58
2023-09-27T08:27:09.970Z,21.08
2023-09-27T08:29:38.325Z,19.63
2023-09-27T08:32:07.999Z,21.35
2023-09-27T08:34:38.468Z,19.85
2023-09-27T08:37:08.712Z,17.85
2023-09-27T08:39:40.223Z,18.65
2023-09-27T08:42:10.706Z,15.23
2023-09-27T08:44:41.148Z,16.67
2023-09-27T08:47:12.968Z,16.23
2023-09-27T08:49:43.418Z,17.25
2023-09-27T08:52:14.739Z,15.90
2023-09-27T08:54:45.104Z,18.77
2023-09-27T08:57:17.930Z,15.98
2023-09-27T08:59:48.427Z,19.27
2023-09-27T09:02:21.338Z,16.35
2023-09-27T09:04:52.724Z,15.80
2023-09-27T09:07:22.943Z,15.93
2023-09-27T09:09:53.496Z,14.40
2023-09-27T09:12:24.009Z,15.50
2023-09-27T09:14:56.374Z,12.60
2023-09-27T09:17:36.182Z,14.75
2023-09-27T09:20:34.589Z,18.42
2023-09-27T09:23:08.800Z,16.20
2023-09-27T09:25:45.347Z,15.95
2023-09-27T09:28:15.640Z,17.67
2023-09-27T09:30:47.317Z,15.52
2023-09-27T09:33:29.889Z,13.93
2023-09-27T09:35:59.896Z,18.38
2023-09-27T09:38:32.309Z,15.15
2023-09-27T09:41:03.671Z,15.70
2023-09-27T09:43:40.545Z,15.00
2023-09-27T09:46:12.130Z,12.65
2023-09-27T09:48:43.371Z,17.05
2023-09-27T09:51:16.518Z,18.50
2023-09-27T09:53:44.435Z,14.20
2023-09-27T09:59:05.095Z,15.68
2023-09-27T10:01:38.991Z,13.48
2023-09-27T10:04:09.662Z,11.60
2023-09-27T10:06:48.886Z,16.20
2023-09-27T10:09:20.201Z,17.70
2023-09-27T10:11:51.337Z,14.25
2023-09-27T10:14:22.701Z,14.10
2023-09-27T10:16:53.087Z,12.63
2023-09-27T10:19:30.105Z,9.80
2023-09-27T10:22:15.541Z,10.73
2023-09-27T10:24:45.934Z,11.43
2023-09-27T10:27:14.547Z,8.00
2023-09-27T10:29:59.483Z,16.15
2023-09-27T10:32:29.532Z,8.70
2023-09-27T10:35:18.671Z,12.77
2023-09-27T10:38:01.264Z,12.95
2023-09-27T10:40:47.111Z,12.00
2023-09-27T10:43:39.790Z,9.35
2023-09-27T10:46:08.797Z,10.20
2023-09-27T10:48:43.775Z,9.85
2023-09-27T10:51:13.706Z,8.80
2023-09-27T10:53:44.611Z,8.98
2023-09-27T10:56:15.903Z,11.27
2023-09-27T10:58:51.857Z,9.35
2023-09-27T11:01:24.187Z,14.35
2023-09-27T11:04:06.550Z,12.10
2023-09-27T11:06:36.053Z,9.30
2023-09-27T11:09:11.425Z,14.77
2023-09-27T11:11:45.245Z,9.93
2023-09-27T11:14:34.509Z,12.18
2023-09-27T11:17:25.503Z,12.60
2023-09-27T11:19:56.442Z,12.55
2023-09-27T11:22:31.561Z,12.90
2023-09-27T11:25:01.923Z,10.60
2023-09-27T11:27:32.512Z,10.95
2023-09-27T11:30:00.748Z,7.68
2023-09-27T11:32:29.126Z,9.93
2023-09-27T11:35:00.713Z,13.35
2023-09-27T11:37:29.851Z,10.38
2023-09-27T11:39:58.742Z,15.48
2023-09-27T11:42:29.208Z,9.60
2023-09-27T11:45:09.698Z,10.35
2023-09-27T11:48:06.755Z,12.48
2023-09-27T11:50:37.117Z,10.10
2023-09-27T11:53:07.813Z,9.73
2023-09-27T11:55:38.301Z,8.68
2023-09-27T11:58:09.756Z,9.15
2023-09-27T12:00:40.036Z,11.95
2023-09-27T12:03:12.027Z,13.07
2023-09-27T12:05:42.529Z,14.45
2023-09-27T12:08:13.137Z,8.48
2023-09-27T12:10:43.414Z,14.25
2023-09-27T12:13:13.631Z,10.18
2023-09-27T12:15:43.844Z,11.00
2023-09-27T12:18:14.116Z,13.00
2023-09-27T12:20:47.490Z,10.20
2023-09-27T12:23:20.753Z,10.85
2023-09-27T12:25:51.081Z,11.30
2023-09-27T12:28:21.733Z,10.25
2023-09-27T12:30:49.271Z,13.77
2023-09-27T12:33:20.299Z,11.30
2023-09-27T12:35:51.312Z,10.95
2023-09-27T12:38:20.532Z,11.55
2023-09-27T12:40:48.983Z,11.35
2023-09-27T12:43:17.783Z,12.98
2023-09-27T12:45:45.965Z,13.88
2023-09-27T12:48:14.336Z,10.90
2023-09-27T12:50:43.731Z,9.27
2023-09-27T12:53:11.251Z,11.13
2023-09-27T12:55:45.544Z,10.77
2023-09-27T12:58:16.218Z,13.38
2023-09-27T13:00:46.767Z,13.07
2023-09-27T13:03:17.413Z,10.13
2023-09-27T13:05:47.532Z,11.20
2023-09-27T13:08:17.324Z,14.13
2023-09-27T13:10:47.382Z,10.15
2023-09-27T13:13:17.454Z,8.93
2023-09-27T13:15:47.271Z,10.20
2023-09-27T13:18:17.325Z,9.65
2023-09-27T13:20:47.216Z,11.77
2023-09-27T13:23:17.305Z,12.65
2023-09-27T13:25:55.405Z,13.23
2023-09-27T13:28:25.330Z,12.48
2023-09-27T13:30:56.188Z,10.30
2023-09-27T13:33:27.089Z,10.45
2023-09-27T13:35:54.815Z,11.25
2023-09-27T13:38:26.166Z,11.32
2023-09-27T13:40:55.030Z,14.10
2023-09-27T13:43:24.944Z,13.95
2023-09-27T13:45:54.820Z,13.80
2023-09-27T13:48:24.716Z,10.80
2023-09-27T13:50:53.123Z,11.30
2023-09-27T13:53:21.574Z,12.73
2023-09-27T13:55:51.300Z,11.35
2023-09-27T13:58:21.333Z,12.70
2023-09-27T14:00:50.709Z,11.80
2023-09-27T14:03:18.846Z,11.40
2023-09-27T14:05:46.707Z,10.43
2023-09-27T14:08:14.974Z,13.13
2023-09-27T14:10:43.396Z,16.10
2023-09-27T14:13:12.121Z,11.18
2023-09-27T14:15:41.756Z,12.75
2023-09-27T14:18:12.187Z,13.50
2023-09-27T14:20:42.512Z,12.05
2023-09-27T14:23:13.130Z,11.80
2023-09-27T14:25:44.869Z,9.98
2023-09-27T14:28:18.116Z,11.15
2023-09-27T14:30:48.292Z,12.27
2023-09-27T14:33:18.664Z,13.23
2023-09-27T14:35:52.770Z,13.25
2023-09-27T14:38:23.487Z,18.45
2023-09-27T14:40:53.831Z,14.13
2023-09-27T14:43:24.105Z,14.68
2023-09-27T14:45:54.311Z,13.07
2023-09-27T14:48:24.585Z,13.88
2023-09-27T14:50:54.775Z,12.35
2023-09-27T14:53:25.572Z,13.30
2023-09-27T14:55:55.975Z,16.38
2023-09-27T14:58:26.174Z,19.75
2023-09-27T15:00:56.476Z,13.63
2023-09-27T15:03:26.913Z,16.33
2023-09-27T15:05:57.204Z,14.23
2023-09-27T15:08:27.531Z,13.10
2023-09-27T15:10:58.482Z,14.95
2023-09-27T15:13:30.310Z,13.23
2023-09-27T15:16:02.105Z,14.43
2023-09-27T15:18:32.502Z,17.05
2023-09-27T15:21:02.852Z,16.25
2023-09-27T15:23:33.059Z,23.48
2023-09-27T15:26:05.137Z,14.25
2023-09-27T15:28:36.145Z,15.77
2023-09-27T15:31:10.793Z,15.65
2023-09-27T15:33:41.165Z,15.93
2023-09-27T15:36:13.107Z,13.85
2023-09-27T15:38:45.093Z,16.77
2023-09-27T15:41:24.420Z,15.38
2023-09-27T15:43:56.080Z,14.93
2023-09-27T15:46:26.918Z,16.67
2023-09-27T15:48:58.620Z,17.23
2023-09-27T15:51:28.975Z,24.08
2023-09-27T15:54:11.435Z,15.15
2023-09-27T15:56:48.011Z,14.95
2023-09-27T15:59:20.512Z,14.02
2023-09-27T16:01:51.296Z,16.30
2023-09-27T16:04:21.774Z,16.83
2023-09-27T16:06:51.950Z,16.88
2023-09-27T16:09:20.454Z,16.60
2023-09-27T16:11:49.545Z,17.08
2023-09-27T16:14:17.227Z,19.25
2023-09-27T16:16:45.663Z,24.15
2023-09-27T16:19:14.039Z,18.15
2023-09-27T16:21:42.969Z,22.23
2023-09-27T16:24:12.930Z,27.08
2023-09-27T16:26:43.410Z,25.00
2023-09-27T16:29:13.605Z,20.00
2023-09-27T16:31:45.086Z,21.38
2023-09-27T16:34:16.237Z,21.15
2023-09-27T16:36:46.567Z,24.73
2023-09-27T16:39:16.747Z,21.98
2023-09-27T16:41:47.430Z,20.65
2023-09-27T16:44:17.666Z,26.38
2023-09-27T16:46:47.906Z,27.73
2023-09-27T16:49:18.162Z,25.98
2023-09-27T16:51:48.419Z,24.80
2023-09-27T16:54:19.034Z,28.80
2023-09-27T16:56:49.309Z,28.27
2023-09-27T16:59:19.467Z,22.63
2023-09-27T17:01:49.822Z,22.20
2023-09-27T17:04:20.098Z,21.38
2023-09-27T17:06:50.352Z,23.00
2023-09-27T17:09:20.550Z,22.67
2023-09-27T17:11:50.832Z,25.13
2023-09-27T17:14:22.728Z,23.63
2023-09-27T17:16:53.044Z,24.33
2023-09-27T17:19:25.321Z,24.10
2023-09-27T17:21:55.954Z,23.40
2023-09-27T17:24:26.272Z,23.88
2023-09-27T17:26:56.748Z,27.50
2023-09-27T17:29:27.025Z,25.50
2023-09-27T17:31:58.599Z,25.83
2023-09-27T17:34:28.979Z,25.83
2023-09-27T17:36:59.231Z,30.42
2023-09-27T17:39:29.506Z,29.52
2023-09-27T17:42:00.520Z,36.17
2023-09-27T17:44:30.797Z,24.58
2023-09-27T17:47:01.698Z,23.92
2023-09-27T17:49:32.557Z,23.30
2023-09-27T17:52:02.864Z,31.40
2023-09-27T17:54:33.076Z,34.40
2023-09-27T17:57:03.515Z,23.58
2023-09-27T17:59:33.720Z,24.45
2023-09-27T18:02:05.070Z,27.60
2023-09-27T18:04:35.429Z,24.13
2023-09-27T18:07:06.472Z,27.80
2023-09-27T18:09:37.457Z,26.80
2023-09-27T18:12:07.180Z,25.58
2023-09-27T18:14:36.560Z,26.02
2023-09-27T18:17:04.972Z,28.27
2023-09-27T18:19:33.830Z,25.60
2023-09-27T18:22:03.773Z,26.08
2023-09-27T18:24:34.001Z,27.17
2023-09-27T18:27:04.409Z,28.63
2023-09-27T18:29:34.624Z,30.95
2023-09-27T18:32:05.177Z,30.10
2023-09-27T18:34:36.520Z,28.48
2023-09-27T18:37:06.815Z,30.00
2023-09-27T18:39:37.012Z,27.65
2023-09-27T18:42:07.248Z,26.95
2023-09-27T18:44:41.076Z,26.70
2023-09-27T18:47:12.367Z,33.80
2023-09-27T18:49:42.700Z,30.25
2023-09-27T18:52:13.035Z,27.30
2023-09-27T18:54:43.315Z,26.65
2023-09-27T18:57:13.543Z,27.63
2023-09-27T18:59:43.805Z,24.50
2023-09-27T19:02:14.114Z,27.10
2023-09-27T19:04:44.464Z,23.67
2023-09-27T19:07:14.741Z,22.67
2023-09-27T19:09:43.147Z,23.50
2023-09-27T19:12:11.490Z,23.38
2023-09-27T19:14:39.987Z,22.60
2023-09-27T19:17:08.409Z,26.38
2023-09-27T19:19:36.870Z,25.83
2023-09-27T19:22:05.188Z,23.48
2023-09-27T19:24:33.576Z,23.95
2023-09-27T19:27:01.959Z,22.42
2023-09-27T19:29:30.342Z,29.90
2023-09-27T19:31:58.855Z,24.80
2023-09-27T19:34:27.339Z,23.63
2023-09-27T19:36:55.646Z,24.13
2023-09-27T19:39:24.046Z,28.50
2023-09-27T19:41:52.496Z,27.20
2023-09-27T19:44:20.938Z,23.35
2023-09-27T19:46:49.481Z,26.85
2023-09-27T19:49:18.824Z,26.90
2023-09-27T19:51:46.556Z,29.70
2023-09-27T19:54:15.078Z,24.63
2023-09-27T19:56:44.990Z,25.83
2023-09-27T19:59:14.482Z,29.60
2023-09-27T20:01:42.866Z,28.98
2023-09-27T20:04:13.146Z,28.10
2023-09-27T20:06:43.939Z,25.13
2023-09-27T20:09:14.171Z,31.35
2023-09-27T20:11:44.418Z,24.70
2023-09-27T20:14:14.714Z,23.13
2023-09-27T20:16:45.023Z,26.38
2023-09-27T20:19:15.771Z,25.92
2023-09-27T20:21:46.008Z,23.15
2023-09-27T20:24:16.305Z,28.50
2023-09-27T20:26:46.720Z,25.15
2023-09-27T20:29:17.249Z,24.50
2023-09-27T20:31:47.572Z,25.65
2023-09-27T20:34:18.008Z,23.42
2023-09-27T20:36:48.589Z,27.13
2023-09-27T20:39:20.672Z,24.88
2023-09-27T20:41:51.089Z,20.70
2023-09-27T20:44:21.312Z,25.80
2023-09-27T20:46:52.063Z,27.27
2023-09-27T20:49:22.306Z,25.08
2023-09-27T20:51:52.534Z,31.35
2023-09-27T20:54:24.331Z,25.02
2023-09-27T20:56:54.548Z,26.80
2023-09-27T20:59:24.830Z,26.90
2023-09-27T21:01:55.304Z,23.17
2023-09-27T21:04:25.737Z,23.65
2023-09-27T21:06:55.943Z,20.63
2023-09-27T21:09:26.267Z,23.98
2023-09-27T21:11:56.963Z,25.92
2023-09-27T21:14:27.165Z,19.63
2023-09-27T21:16:57.392Z,22.85
2023-09-27T21:19:27.616Z,25.45
2023-09-27T21:21:58.906Z,23.90
2023-09-27T21:24:29.149Z,21.42
2023-09-27T21:26:59.435Z,20.05
2023-09-27T21:29:29.655Z,24.98
2023-09-27T21:31:59.970Z,22.70
2023-09-27T21:34:30.310Z,20.95
2023-09-27T21:37:00.604Z,23.00
2023-09-27T21:39:30.761Z,23.05
2023-09-27T21:42:01.010Z,18.30
2023-09-27T21:44:31.534Z,20.10
2023-09-27T21:47:02.359Z,19.27
2023-09-27T21:49:32.613Z,22.20
2023-09-27T21:52:04.165Z,22.63
2023-09-27T21:54:34.235Z,23.50
2023-09-27T21:57:02.926Z,25.83
2023-09-27T21:59:31.120Z,23.42
2023-09-27T22:01:59.522Z,23.23
2023-09-27T22:04:27.964Z,23.50
2023-09-27T22:06:56.809Z,21.25
2023-09-27T22:09:24.723Z,27.70
2023-09-27T22:11:54.220Z,18.73
2023-09-27T22:14:21.749Z,22.20
2023-09-27T22:16:58.159Z,25.15
2023-09-27T22:19:29.183Z,21.38
2023-09-27T22:21:59.855Z,20.27
2023-09-27T22:24:31.948Z,25.15
2023-09-27T22:27:02.257Z,26.30
2023-09-27T22:29:33.311Z,21.45
2023-09-27T22:32:05.931Z,27.15
2023-09-27T22:34:38.954Z,25.65
2023-09-27T22:37:09.588Z,22.92
2023-09-27T22:39:41.774Z,27.48
2023-09-27T22:42:14.477Z,25.45
2023-09-27T22:44:45.114Z,19.58
2023-09-27T22:47:15.338Z,24.85
2023-09-27T22:49:43.716Z,24.85
2023-09-27T22:52:12.190Z,24.38
2023-09-27T22:54:41.959Z,26.33
2023-09-27T22:57:12.041Z,22.52
2023-09-27T22:59:40.376Z,21.48
2023-09-27T23:02:11.272Z,25.65
2023-09-27T23:04:39.713Z,24.75
2023-09-27T23:07:18.258Z,21.52
2023-09-27T23:09:48.682Z,26.38
2023-09-27T23:12:20.355Z,22.67
2023-09-27T23:15:10.171Z,27.52
2023-09-27T23:18:06.391Z,21.65
2023-09-27T23:20:36.596Z,26.30
2023-09-27T23:23:14.304Z,21.42
2023-09-27T23:25:44.661Z,27.63
2023-09-27T23:28:28.504Z,22.20
2023-09-27T23:31:10.498Z,28.80
2023-09-27T23:33:43.827Z,21.88
2023-09-27T23:36:25.626Z,23.35
2023-09-27T23:38:59.689Z,23.30
2023-09-27T23:41:32.445Z,22.45
2023-09-27T23:44:08.065Z,21.98
2023-09-27T23:46:40.556Z,25.08
2023-09-27T23:49:17.414Z,30.42
2023-09-27T23:51:47.740Z,25.60
2023-09-27T23:54:17.964Z,23.63
2023-09-27T23:56:49.117Z,23.17
2023-09-27T23:59:23.663Z,23.63
